createdAt,value
2019-04-18T00:04:47.941Z,13.23
2019-04-18T00:09:56.327Z,12.60
2019-04-18T00:15:00.591Z,12.87
2019-04-18T00:20:06.303Z,11.13
2019-04-18T00:25:11.740Z,14.13
2019-04-18T00:30:17.200Z,11.73
2019-04-18T00:35:22.607Z,14.40
2019-04-18T00:40:29.732Z,10.70
2019-04-18T00:45:35.171Z,13.07
2019-04-18T00:50:40.605Z,11.63
2019-04-18T00:55:46.112Z,12.77
2019-04-18T01:00:51.557Z,12.17
2019-04-18T01:05:57.016Z,12.43
2019-04-18T01:11:02.494Z,10.37
2019-04-18T01:16:08.291Z,11.77
2019-04-18T01:21:13.765Z,10.97
2019-04-18T01:26:19.215Z,10.17
2019-04-18T01:31:24.790Z,12.43
2019-04-18T01:36:30.428Z,10.97
2019-04-18T01:41:42.715Z,10.20
2019-04-18T01:46:52.902Z,10.57
2019-04-18T01:51:57.846Z,10.50
2019-04-18T01:57:03.625Z,10.40
2019-04-18T02:02:09.602Z,11.67
2019-04-18T02:07:16.548Z,10.87
2019-04-18T02:12:22.103Z,10.33
2019-04-18T02:17:27.533Z,8.17
2019-04-18T02:22:32.934Z,10.17
2019-04-18T02:27:38.366Z,8.37
2019-04-18T02:32:43.802Z,8.67
2019-04-18T02:37:49.241Z,9.47
2019-04-18T02:42:54.681Z,8.07
2019-04-18T02:48:00.115Z,9.27
2019-04-18T02:53:05.578Z,9.73
2019-04-18T02:58:15.774Z,11.73
2019-04-18T03:03:26.403Z,12.63
2019-04-18T03:08:32.023Z,15.07
2019-04-18T03:13:37.534Z,10.47
2019-04-18T03:18:42.967Z,11.97
2019-04-18T03:23:48.402Z,10.33
2019-04-18T03:28:53.851Z,13.40
2019-04-18T03:34:00.112Z,12.33
2019-04-18T03:39:06.900Z,12.13
2019-04-18T03:44:14.897Z,12.00
2019-04-18T03:49:19.667Z,10.53
2019-04-18T03:54:25.153Z,10.10
2019-04-18T03:59:30.566Z,8.93
2019-04-18T04:04:36.021Z,10.93
2019-04-18T04:09:41.441Z,9.23
2019-04-18T04:14:46.868Z,10.87
2019-04-18T04:19:53.871Z,10.23
2019-04-18T04:24:59.901Z,6.40
2019-04-18T04:30:07.286Z,10.20
2019-04-18T04:35:13.362Z,8.50
2019-04-18T04:40:21.001Z,9.13
2019-04-18T04:45:31.657Z,8.17
2019-04-18T04:51:33.127Z,9.63
2019-04-18T04:56:56.280Z,8.73
2019-04-18T05:02:02.442Z,9.53
2019-04-18T05:07:08.841Z,8.53
2019-04-18T05:12:14.421Z,6.97
2019-04-18T05:17:19.891Z,9.00
2019-04-18T05:22:25.389Z,7.83
2019-04-18T05:27:30.890Z,7.50
2019-04-18T05:32:36.341Z,7.77
2019-04-18T05:37:41.916Z,6.37
2019-04-18T05:42:52.953Z,9.23
2019-04-18T05:48:03.738Z,8.10
2019-04-18T05:53:23.310Z,9.87
2019-04-18T05:58:33.263Z,11.10
2019-04-18T06:03:51.856Z,9.67
2019-04-18T06:08:57.310Z,10.40
2019-04-18T06:14:09.431Z,10.93
2019-04-18T06:19:25.239Z,7.37
2019-04-18T06:24:35.631Z,6.73
2019-04-18T06:30:06.237Z,6.70
2019-04-18T06:35:15.883Z,5.53
2019-04-18T06:40:19.521Z,7.27
2019-04-18T06:45:25.481Z,4.43
2019-04-18T06:50:31.421Z,6.50
2019-04-18T06:55:37.451Z,7.63
2019-04-18T07:00:43.718Z,5.80
2019-04-18T07:05:49.822Z,5.70
2019-04-18T07:11:07.932Z,5.60
2019-04-18T07:16:14.266Z,5.50
2019-04-18T07:21:28.216Z,5.50
2019-04-18T07:26:33.603Z,5.53
2019-04-18T07:31:39.388Z,4.43
2019-04-18T07:36:45.139Z,3.77
2019-04-18T07:41:50.831Z,4.93
2019-04-18T07:46:56.580Z,6.70
2019-04-18T07:52:02.594Z,4.20
2019-04-18T07:57:12.358Z,6.77
2019-04-18T08:02:16.309Z,4.40
2019-04-18T08:07:22.197Z,4.13
2019-04-18T08:12:28.919Z,4.80
2019-04-18T08:17:34.834Z,3.40
2019-04-18T08:22:40.628Z,4.57
2019-04-18T08:27:46.477Z,4.77
2019-04-18T08:32:52.787Z,7.10
2019-04-18T08:38:07.101Z,6.30
2019-04-18T08:43:18.618Z,6.30
2019-04-18T08:48:25.266Z,4.20
2019-04-18T08:53:48.958Z,4.33
2019-04-18T08:58:49.489Z,5.37
2019-04-18T09:03:55.194Z,3.73
2019-04-18T09:09:01.759Z,7.77
2019-04-18T09:14:09.653Z,5.10
2019-04-18T09:19:17.168Z,3.60
2019-04-18T09:24:25.394Z,3.93
2019-04-18T09:29:30.692Z,5.67
2019-04-18T09:34:36.408Z,3.50
2019-04-18T09:39:42.925Z,5.10
2019-04-18T09:44:53.970Z,5.60
2019-04-18T09:49:57.279Z,3.30
2019-04-18T09:55:03.099Z,4.30
2019-04-18T10:00:13.434Z,4.10
2019-04-18T10:05:24.306Z,6.50
2019-04-18T10:10:27.249Z,4.43
2019-04-18T10:15:32.844Z,4.20
2019-04-18T10:20:42.960Z,4.80
2019-04-18T10:26:06.057Z,3.93
2019-04-18T10:31:13.183Z,4.30
2019-04-18T10:36:19.199Z,6.03
2019-04-18T10:41:24.697Z,4.40
2019-04-18T10:46:30.122Z,4.57
2019-04-18T10:51:35.619Z,7.07
2019-04-18T10:56:41.135Z,4.30
2019-04-18T11:01:46.619Z,3.80
2019-04-18T11:06:52.117Z,5.50
2019-04-18T11:11:57.786Z,4.37
2019-04-18T11:17:03.686Z,5.80
2019-04-18T11:22:09.950Z,3.70
2019-04-18T11:27:15.949Z,4.17
2019-04-18T11:32:22.809Z,3.40
2019-04-18T11:37:28.517Z,5.00
2019-04-18T11:42:34.026Z,5.40
2019-04-18T11:47:39.579Z,4.27
2019-04-18T11:52:45.028Z,5.77
2019-04-18T11:57:50.487Z,5.03
2019-04-18T12:02:58.191Z,8.07
2019-04-18T12:08:03.861Z,3.80
2019-04-18T12:13:09.317Z,3.80
2019-04-18T12:18:14.886Z,3.77
2019-04-18T12:23:20.460Z,4.03
2019-04-18T12:28:25.928Z,2.90
2019-04-18T12:33:34.881Z,3.53
2019-04-18T12:38:39.474Z,5.20
2019-04-18T12:43:45.383Z,3.07
2019-04-18T12:48:50.808Z,2.93
2019-04-18T12:53:58.353Z,4.97
2019-04-18T12:59:04.109Z,7.30
2019-04-18T13:04:10.283Z,4.40
2019-04-18T13:09:43.741Z,3.00
2019-04-18T13:15:11.038Z,3.60
2019-04-18T13:20:16.639Z,7.20
2019-04-18T13:25:22.577Z,2.93
2019-04-18T13:30:28.659Z,3.37
2019-04-18T13:35:34.174Z,4.67
2019-04-18T13:40:39.910Z,4.50
2019-04-18T13:45:45.365Z,3.47
2019-04-18T13:50:50.913Z,3.60
2019-04-18T13:55:56.390Z,4.83
2019-04-18T14:01:02.172Z,3.17
2019-04-18T14:06:07.938Z,2.97
2019-04-18T14:11:15.567Z,5.77
2019-04-18T14:16:20.670Z,4.07
2019-04-18T14:21:26.099Z,3.47
2019-04-18T14:26:31.599Z,4.03
2019-04-18T14:31:37.065Z,5.87
2019-04-18T14:36:44.727Z,2.90
2019-04-18T14:41:49.965Z,3.20
2019-04-18T14:46:57.432Z,5.10
2019-04-18T14:52:02.627Z,3.47
2019-04-18T14:57:08.256Z,3.77
2019-04-18T15:02:13.910Z,3.53
2019-04-18T15:07:19.509Z,2.70
2019-04-18T15:12:25.443Z,2.30
2019-04-18T15:17:31.078Z,5.60
2019-04-18T15:22:36.527Z,5.30
2019-04-18T15:27:42.147Z,4.77
2019-04-18T15:32:48.009Z,1.93
2019-04-18T15:37:53.616Z,1.87
2019-04-18T15:43:02.095Z,3.27
2019-04-18T15:48:07.237Z,6.27
2019-04-18T15:53:13.547Z,2.70
2019-04-18T15:58:19.246Z,2.50
2019-04-18T16:03:24.857Z,3.23
2019-04-18T16:08:30.283Z,2.30
2019-04-18T16:13:35.722Z,4.00
2019-04-18T16:18:41.169Z,3.60
2019-04-18T16:23:49.070Z,6.20
2019-04-18T16:28:53.921Z,3.00
2019-04-18T16:33:59.394Z,3.93
2019-04-18T16:39:04.953Z,2.23
2019-04-18T16:44:10.642Z,2.10
2019-04-18T16:49:16.254Z,6.20
2019-04-18T16:54:21.808Z,2.30
2019-04-18T16:59:27.239Z,3.10
2019-04-18T17:04:32.781Z,3.33
2019-04-18T17:09:38.375Z,3.30
2019-04-18T17:14:43.991Z,2.93
2019-04-18T17:19:49.450Z,3.80
2019-04-18T17:24:54.871Z,3.30
2019-04-18T17:30:00.477Z,3.00
2019-04-18T17:35:18.833Z,4.33
2019-04-18T17:40:26.769Z,5.43
2019-04-18T17:45:21.283Z,5.33
2019-04-18T17:50:33.975Z,3.80
2019-04-18T17:55:47.863Z,7.67
2019-04-18T18:00:42.945Z,4.70
2019-04-18T18:06:00.584Z,5.60
2019-04-18T18:11:03.508Z,5.43
2019-04-18T18:16:17.385Z,5.13
2019-04-18T18:21:22.571Z,6.03
2019-04-18T18:26:29.046Z,7.47
2019-04-18T18:31:45.268Z,4.57
2019-04-18T18:37:31.699Z,5.87
2019-04-18T18:42:29.144Z,6.40
2019-04-18T18:47:29.482Z,7.17
2019-04-18T18:52:35.273Z,9.97
2019-04-18T18:57:46.653Z,6.70
2019-04-18T19:02:51.567Z,9.03
2019-04-18T19:08:09.752Z,8.93
2019-04-18T19:13:36.181Z,7.27
2019-04-18T19:18:09.540Z,7.43
2019-04-18T19:23:22.720Z,8.17
2019-04-18T19:28:28.817Z,6.10
2019-04-18T19:33:32.253Z,5.87
2019-04-18T19:38:56.528Z,11.87
2019-04-18T19:43:45.612Z,8.30
2019-04-18T19:48:52.227Z,8.23
2019-04-18T19:53:59.369Z,6.63
2019-04-18T19:59:08.001Z,14.70
2019-04-18T20:04:12.313Z,8.53
2019-04-18T20:09:28.052Z,11.27
2019-04-18T20:14:27.195Z,9.40
2019-04-18T20:19:33.257Z,6.07
2019-04-18T20:24:39.664Z,6.57
2019-04-18T20:29:48.539Z,6.37
2019-04-18T20:34:54.266Z,6.90
2019-04-18T20:45:39.018Z,8.27
2019-04-18T20:50:24.725Z,10.20
2019-04-18T20:55:38.858Z,7.50
2019-04-18T21:00:32.319Z,9.43
2019-04-18T21:05:42.299Z,9.47
2019-04-18T21:10:48.841Z,9.43
2019-04-18T21:15:59.118Z,7.60
2019-04-18T21:20:59.621Z,5.57
2019-04-18T21:26:09.375Z,6.83
2019-04-18T21:31:12.524Z,7.03
2019-04-18T21:36:21.593Z,19.20
2019-04-18T21:41:25.703Z,8.53
2019-04-18T21:46:33.606Z,8.30
2019-04-18T21:51:42.677Z,11.97
2019-04-18T21:56:51.300Z,7.07
2019-04-18T22:01:53.586Z,5.53
2019-04-18T22:07:13.306Z,7.37
2019-04-18T22:12:08.765Z,11.00
2019-04-18T22:17:13.986Z,7.23
2019-04-18T22:22:22.116Z,7.23
2019-04-18T22:27:27.692Z,8.00
2019-04-18T22:32:35.234Z,8.03
2019-04-18T22:37:44.708Z,9.17
2019-04-18T22:42:51.040Z,8.77
2019-04-18T22:47:56.974Z,11.47
2019-04-18T22:53:06.448Z,8.47
2019-04-18T22:58:16.609Z,8.27
2019-04-18T23:03:17.113Z,7.93
2019-04-18T23:08:28.692Z,6.73
2019-04-18T23:13:32.082Z,7.57
2019-04-18T23:18:37.501Z,9.90
2019-04-18T23:23:45.691Z,6.43
2019-04-18T23:28:55.470Z,6.30
2019-04-18T23:34:00.908Z,6.87
2019-04-18T23:39:15.581Z,8.70
2019-04-18T23:44:17.982Z,8.87
2019-04-18T23:49:25.098Z,8.43
2019-04-18T23:54:32.422Z,7.07
2019-04-18T23:59:39.295Z,8.03
